createdAt,value
2019-06-08T00:02:20.699Z,88.10
2019-06-08T00:04:50.412Z,87.80
2019-06-08T00:07:20.903Z,87.90
2019-06-08T00:09:50.578Z,87.50
2019-06-08T00:12:21.206Z,87.70
2019-06-08T00:14:51.045Z,87.50
2019-06-08T00:17:35.716Z,87.80
2019-06-08T00:19:51.846Z,87.50
2019-06-08T00:22:21.962Z,88.00
2019-06-08T00:24:51.563Z,88.00
2019-06-08T00:27:21.797Z,88.40
2019-06-08T00:29:52.357Z,88.40
2019-06-08T00:32:22.620Z,88.20
2019-06-08T00:34:52.345Z,88.70
2019-06-08T00:37:22.907Z,88.90
2019-06-08T00:39:52.551Z,89.30
2019-06-08T00:42:23.322Z,89.60
2019-06-08T00:44:52.982Z,89.90
2019-06-08T00:47:22.662Z,90.10
2019-06-08T00:49:52.289Z,90.00
2019-06-08T00:52:23.132Z,90.10
2019-06-08T00:54:52.824Z,90.00
2019-06-08T00:57:23.757Z,90.20
2019-06-08T00:59:53.463Z,90.20
2019-06-08T01:02:24.457Z,90.10
2019-06-08T01:04:54.312Z,90.00
2019-06-08T01:07:24.077Z,90.40
2019-06-08T01:09:53.754Z,90.50
2019-06-08T01:12:24.626Z,90.20
2019-06-08T01:14:54.402Z,90.10
2019-06-08T01:17:25.053Z,90.30
2019-06-08T01:19:54.712Z,90.10
2019-06-08T01:22:25.448Z,90.00
2019-06-08T01:24:55.235Z,89.50
2019-06-08T01:27:25.992Z,89.50
2019-06-08T01:29:55.946Z,88.80
2019-06-08T01:32:26.387Z,88.40
2019-06-08T01:34:56.020Z,87.90
2019-06-08T01:37:26.927Z,88.00
2019-06-08T01:39:56.689Z,87.20
2019-06-08T01:42:27.600Z,87.30
2019-06-08T01:44:57.368Z,87.30
2019-06-08T01:47:28.194Z,86.30
2019-06-08T01:49:59.599Z,86.60
2019-06-08T01:52:29.157Z,86.90
2019-06-08T01:54:58.695Z,86.80
2019-06-08T01:57:29.415Z,87.40
2019-06-08T01:59:59.054Z,87.40
2019-06-08T02:02:29.908Z,86.90
2019-06-08T02:04:59.707Z,86.60
2019-06-08T02:07:41.954Z,86.40
2019-06-08T02:10:12.054Z,86.10
2019-06-08T02:12:41.613Z,87.50
2019-06-08T02:15:11.390Z,88.60
2019-06-08T02:17:40.943Z,88.70
2019-06-08T02:20:11.148Z,88.90
2019-06-08T02:22:40.771Z,89.30
2019-06-08T02:25:10.656Z,89.10
2019-06-08T02:27:40.213Z,89.20
2019-06-08T02:30:11.976Z,89.50
2019-06-08T02:32:41.524Z,89.90
2019-06-08T02:35:11.408Z,90.00
2019-06-08T02:37:40.983Z,90.20
2019-06-08T02:40:10.607Z,90.50
2019-06-08T02:42:41.873Z,90.60
2019-06-08T02:45:12.968Z,90.90
2019-06-08T02:47:42.591Z,91.10
2019-06-08T02:50:13.489Z,91.30
2019-06-08T02:52:44.889Z,91.40
2019-06-08T02:55:14.573Z,91.50
2019-06-08T02:57:45.856Z,91.50
2019-06-08T03:00:15.758Z,91.70
2019-06-08T03:02:46.896Z,91.80
2019-06-08T03:05:17.413Z,92.00
2019-06-08T03:07:49.184Z,92.30
2019-06-08T03:10:18.874Z,92.20
2019-06-08T03:12:50.964Z,92.30
2019-06-08T03:15:33.707Z,92.30
2019-06-08T03:18:01.146Z,92.20
2019-06-08T03:20:31.623Z,92.30
2019-06-08T03:23:01.343Z,92.20
2019-06-08T03:25:33.212Z,92.20
2019-06-08T03:28:02.198Z,92.30
2019-06-08T03:30:34.461Z,92.40
2019-06-08T03:33:03.057Z,92.30
2019-06-08T03:35:36.011Z,92.30
2019-06-08T03:38:03.783Z,92.30
2019-06-08T03:40:33.923Z,92.40
2019-06-08T03:43:04.751Z,92.40
2019-06-08T03:45:34.351Z,92.40
2019-06-08T03:48:03.972Z,92.60
2019-06-08T03:50:35.324Z,92.70
2019-06-08T03:53:04.733Z,92.70
2019-06-08T03:55:35.422Z,92.80
2019-06-08T03:58:05.366Z,92.70
2019-06-08T04:00:36.298Z,92.80
2019-06-08T04:03:06.144Z,92.60
2019-06-08T04:05:37.710Z,92.80
2019-06-08T04:08:06.932Z,92.60
2019-06-08T04:10:37.573Z,93.00
2019-06-08T04:13:11.119Z,93.50
2019-06-08T04:15:40.348Z,94.00
2019-06-08T04:18:09.957Z,94.60
2019-06-08T04:20:40.273Z,94.90
2019-06-08T04:23:10.565Z,94.80
2019-06-08T04:25:40.614Z,95.90
2019-06-08T04:28:11.366Z,96.00
2019-06-08T04:30:41.517Z,95.90
2019-06-08T04:33:12.100Z,95.80
2019-06-08T04:35:42.754Z,95.80
2019-06-08T04:38:12.831Z,96.20
2019-06-08T04:40:43.497Z,95.30
2019-06-08T04:43:13.245Z,95.00
2019-06-08T04:45:43.591Z,94.20
2019-06-08T04:48:14.068Z,92.90
2019-06-08T04:50:45.289Z,93.10
2019-06-08T04:53:14.789Z,93.00
2019-06-08T04:55:45.130Z,92.20
2019-06-08T04:58:15.154Z,92.90
2019-06-08T05:00:46.237Z,93.30
2019-06-08T05:03:16.028Z,93.60
2019-06-08T05:05:47.395Z,93.80
2019-06-08T05:08:16.839Z,94.00
2019-06-08T05:10:47.352Z,94.00
2019-06-08T05:13:17.155Z,94.40
2019-06-08T05:15:47.467Z,94.30
2019-06-08T05:18:17.134Z,94.30
2019-06-08T05:20:49.134Z,94.30
2019-06-08T05:23:17.843Z,94.50
2019-06-08T05:25:47.419Z,94.50
2019-06-08T05:28:17.042Z,93.80
2019-06-08T05:30:47.392Z,93.40
2019-06-08T05:33:17.034Z,93.60
2019-06-08T05:35:47.594Z,93.50
2019-06-08T05:38:17.226Z,93.80
2019-06-08T05:40:47.702Z,93.80
2019-06-08T05:43:17.420Z,93.30
2019-06-08T05:45:49.955Z,93.50
2019-06-08T05:48:20.734Z,93.10
2019-06-08T05:51:00.172Z,92.40
2019-06-08T05:53:21.478Z,93.10
2019-06-08T05:55:51.030Z,93.00
2019-06-08T05:58:20.670Z,92.80
2019-06-08T06:00:50.697Z,92.60
2019-06-08T06:03:20.374Z,92.00
2019-06-08T06:05:50.999Z,92.10
2019-06-08T06:08:20.625Z,92.10
2019-06-08T06:10:51.298Z,91.40
2019-06-08T06:13:21.225Z,91.40
2019-06-08T06:15:51.696Z,91.60
2019-06-08T06:18:21.419Z,90.90
2019-06-08T06:20:51.487Z,90.60
2019-06-08T06:23:21.383Z,90.10
2019-06-08T06:25:51.797Z,89.70
2019-06-08T06:28:21.539Z,89.20
2019-06-08T06:30:52.246Z,89.10
2019-06-08T06:33:21.969Z,90.00
2019-06-08T06:35:52.175Z,88.90
2019-06-08T06:38:21.844Z,87.20
2019-06-08T06:40:52.214Z,86.50
2019-06-08T06:43:22.026Z,87.10
2019-06-08T06:45:52.171Z,86.00
2019-06-08T06:48:23.676Z,85.70
2019-06-08T06:50:54.427Z,84.80
2019-06-08T06:53:23.983Z,83.70
2019-06-08T06:55:53.543Z,82.00
2019-06-08T06:58:24.230Z,81.80
2019-06-08T07:00:53.925Z,82.60
2019-06-08T07:03:23.615Z,81.30
2019-06-08T07:05:54.247Z,80.90
2019-06-08T07:08:24.050Z,79.90
2019-06-08T07:10:55.197Z,79.40
2019-06-08T07:13:25.040Z,79.00
2019-06-08T07:15:57.819Z,79.10
2019-06-08T07:18:25.819Z,77.70
2019-06-08T07:20:55.373Z,78.30
2019-06-08T07:23:24.943Z,77.90
2019-06-08T07:25:54.603Z,78.50
2019-06-08T07:28:24.530Z,77.50
2019-06-08T07:30:54.898Z,79.10
2019-06-08T07:33:48.262Z,76.60
2019-06-08T07:36:19.203Z,76.90
2019-06-08T07:38:49.926Z,77.00
2019-06-08T07:41:19.798Z,76.10
2019-06-08T07:43:50.686Z,76.30
2019-06-08T07:46:20.459Z,76.10
2019-06-08T07:48:50.412Z,76.80
2019-06-08T07:51:20.067Z,75.40
2019-06-08T07:53:49.897Z,75.80
2019-06-08T07:56:19.888Z,75.30
2019-06-08T07:58:50.090Z,75.60
2019-06-08T08:01:35.385Z,74.40
2019-06-08T08:03:52.242Z,74.40
2019-06-08T08:06:21.844Z,74.00
2019-06-08T08:08:52.517Z,74.10
2019-06-08T08:11:22.225Z,73.60
2019-06-08T08:13:53.166Z,74.40
2019-06-08T08:16:22.975Z,74.40
2019-06-08T08:18:53.393Z,73.10
2019-06-08T08:21:26.506Z,72.30
2019-06-08T08:23:55.926Z,72.70
2019-06-08T08:26:27.379Z,72.10
2019-06-08T08:29:03.045Z,71.40
2019-06-08T08:31:31.382Z,71.70
2019-06-08T08:34:05.564Z,71.70
2019-06-08T08:36:33.361Z,71.20
2019-06-08T08:39:03.334Z,71.50
2019-06-08T08:41:32.954Z,70.90
2019-06-08T08:44:04.709Z,70.50
2019-06-08T08:46:33.670Z,70.90
2019-06-08T08:49:09.327Z,70.20
2019-06-08T08:51:34.473Z,70.20
2019-06-08T08:54:05.468Z,69.10
2019-06-08T08:56:35.334Z,68.20
2019-06-08T08:59:10.302Z,68.60
2019-06-08T09:01:38.215Z,69.70
2019-06-08T09:04:08.867Z,70.50
2019-06-08T09:06:38.724Z,71.70
2019-06-08T09:09:08.856Z,70.50
2019-06-08T09:11:41.395Z,71.40
2019-06-08T09:14:13.968Z,72.00
2019-06-08T09:16:41.260Z,71.00
2019-06-08T09:19:10.783Z,70.60
2019-06-08T09:21:40.331Z,69.80
2019-06-08T09:24:10.097Z,68.60
2019-06-08T09:26:39.694Z,68.40
2019-06-08T09:29:11.229Z,68.60
2019-06-08T09:31:40.614Z,69.60
2019-06-08T09:34:14.982Z,68.90
2019-06-08T09:36:41.406Z,68.20
2019-06-08T09:39:12.942Z,68.90
2019-06-08T09:41:42.111Z,68.60
2019-06-08T09:44:12.050Z,69.20
2019-06-08T09:46:41.961Z,66.50
2019-06-08T09:49:12.036Z,67.20
2019-06-08T09:51:41.764Z,68.20
2019-06-08T09:54:12.589Z,68.30
2019-06-08T09:56:42.643Z,66.60
2019-06-08T09:59:15.114Z,65.20
2019-06-08T10:01:44.735Z,65.80
2019-06-08T10:04:14.295Z,66.30
2019-06-08T10:06:43.853Z,65.30
2019-06-08T10:09:13.457Z,66.90
2019-06-08T10:11:43.028Z,67.00
2019-06-08T10:14:12.993Z,65.40
2019-06-08T10:16:42.608Z,64.30
2019-06-08T10:19:12.239Z,66.30
2019-06-08T10:21:43.284Z,69.30
2019-06-08T10:24:13.184Z,65.70
2019-06-08T10:26:42.792Z,66.20
2019-06-08T10:29:12.408Z,65.00
2019-06-08T10:31:43.626Z,66.50
2019-06-08T10:34:13.129Z,66.60
2019-06-08T10:36:42.762Z,66.00
2019-06-08T10:39:14.592Z,64.10
2019-06-08T10:41:44.019Z,62.60
2019-06-08T10:44:14.426Z,62.50
2019-06-08T10:46:44.579Z,60.90
2019-06-08T10:49:15.090Z,60.90
2019-06-08T10:51:44.885Z,61.10
2019-06-08T10:54:14.428Z,61.10
2019-06-08T10:56:43.988Z,62.30
2019-06-08T10:59:13.685Z,59.70
2019-06-08T11:01:43.839Z,60.40
2019-06-08T11:04:13.455Z,59.90
2019-06-08T11:06:43.013Z,61.20
2019-06-08T11:09:14.919Z,61.80
2019-06-08T11:11:43.969Z,62.60
2019-06-08T11:14:13.820Z,63.40
2019-06-08T11:16:43.486Z,61.90
2019-06-08T11:19:14.065Z,60.90
2019-06-08T11:21:43.906Z,57.30
2019-06-08T11:24:23.535Z,56.40
2019-06-08T11:26:47.700Z,55.10
2019-06-08T11:29:18.429Z,58.00
2019-06-08T11:31:47.983Z,56.40
2019-06-08T11:34:21.569Z,54.70
2019-06-08T11:36:51.584Z,53.40
2019-06-08T11:39:24.320Z,54.80
2019-06-08T11:41:58.812Z,56.40
2019-06-08T11:44:29.741Z,56.60
2019-06-08T11:47:02.568Z,54.60
2019-06-08T11:49:40.251Z,51.90
2019-06-08T11:52:15.097Z,49.70
2019-06-08T11:54:49.563Z,50.60
2019-06-08T11:57:21.410Z,51.00
2019-06-08T11:59:51.725Z,52.00
2019-06-08T12:02:21.262Z,52.00
2019-06-08T12:04:50.808Z,53.00
2019-06-08T12:07:24.767Z,51.80
2019-06-08T12:09:59.941Z,51.80
2019-06-08T12:12:38.346Z,51.90
2019-06-08T12:15:28.144Z,53.10
2019-06-08T12:17:59.996Z,52.20
2019-06-08T12:20:31.158Z,52.90
2019-06-08T12:23:02.188Z,50.70
2019-06-08T12:25:32.221Z,50.30
2019-06-08T12:28:02.538Z,49.50
2019-06-08T12:30:32.442Z,51.60
2019-06-08T12:33:03.330Z,50.30
2019-06-08T12:35:33.017Z,49.00
2019-06-08T12:38:03.226Z,50.50
2019-06-08T12:40:32.822Z,48.70
2019-06-08T12:43:02.355Z,46.70
2019-06-08T12:45:31.984Z,45.10
2019-06-08T12:48:01.518Z,47.00
2019-06-08T12:50:31.319Z,46.80
2019-06-08T12:53:00.858Z,45.90
2019-06-08T12:55:30.479Z,44.80
2019-06-08T12:58:00.048Z,44.30
2019-06-08T13:00:29.658Z,40.70
2019-06-08T13:02:59.296Z,43.70
2019-06-08T13:05:32.702Z,43.60
2019-06-08T13:08:09.725Z,43.00
2019-06-08T13:10:38.164Z,41.50
2019-06-08T13:13:08.517Z,40.70
2019-06-08T13:15:42.019Z,42.30
2019-06-08T13:18:15.208Z,42.00
2019-06-08T13:20:51.902Z,42.70
2019-06-08T13:23:22.785Z,43.10
2019-06-08T13:25:52.332Z,41.90
2019-06-08T13:28:25.378Z,40.10
2019-06-08T13:30:58.113Z,42.30
2019-06-08T13:33:40.401Z,43.60
2019-06-08T13:36:10.335Z,41.90
2019-06-08T13:38:42.472Z,40.60
2019-06-08T13:41:15.035Z,42.00
2019-06-08T13:43:47.823Z,40.50
2019-06-08T13:46:22.340Z,42.10
2019-06-08T13:48:52.155Z,40.00
2019-06-08T13:51:22.956Z,40.20
2019-06-08T13:53:52.861Z,41.70
2019-06-08T13:56:23.894Z,40.40
2019-06-08T13:58:53.512Z,40.80
2019-06-08T14:01:23.789Z,39.70
2019-06-08T14:03:53.988Z,36.80
2019-06-08T14:06:24.892Z,35.30
2019-06-08T14:08:54.701Z,35.30
2019-06-08T14:11:28.307Z,34.60
2019-06-08T14:14:08.264Z,33.50
2019-06-08T14:16:44.028Z,33.50
2019-06-08T14:19:13.588Z,33.10
2019-06-08T14:21:43.126Z,32.90
2019-06-08T14:24:12.670Z,33.90
2019-06-08T14:26:42.216Z,32.90
2019-06-08T14:29:11.777Z,32.40
2019-06-08T14:31:41.393Z,30.50
2019-06-08T14:34:10.960Z,32.20
2019-06-08T14:36:40.950Z,34.80
2019-06-08T14:39:11.614Z,32.60
2019-06-08T14:41:41.595Z,32.10
2019-06-08T14:44:11.147Z,32.40
2019-06-08T14:46:41.491Z,33.30
2019-06-08T14:49:12.412Z,33.90
2019-06-08T14:51:49.014Z,33.00
2019-06-08T14:54:24.357Z,30.80
2019-06-08T14:56:51.206Z,28.20
2019-06-08T14:59:22.035Z,27.80
2019-06-08T15:01:52.055Z,28.90
2019-06-08T15:04:24.921Z,29.90
2019-06-08T15:06:52.835Z,29.20
2019-06-08T15:09:23.468Z,27.30
2019-06-08T15:11:53.195Z,28.30
2019-06-08T15:14:23.661Z,29.80
2019-06-08T15:16:53.379Z,29.00
2019-06-08T15:19:22.924Z,28.60
2019-06-08T15:21:52.559Z,30.80
2019-06-08T15:24:22.634Z,31.30
2019-06-08T15:26:52.243Z,32.10
2019-06-08T15:29:22.821Z,30.50
2019-06-08T15:31:52.661Z,31.90
2019-06-08T15:34:23.197Z,32.90
2019-06-08T15:36:52.936Z,34.20
2019-06-08T15:39:23.488Z,34.00
2019-06-08T15:41:53.586Z,35.40
2019-06-08T15:44:24.629Z,33.10
2019-06-08T15:46:54.329Z,33.20
2019-06-08T15:49:24.119Z,34.60
2019-06-08T15:51:53.732Z,34.20
2019-06-08T15:54:24.565Z,34.40
2019-06-08T15:56:54.315Z,35.00
2019-06-08T15:59:24.855Z,36.20
2019-06-08T16:01:54.593Z,36.40
2019-06-08T16:04:25.389Z,35.50
2019-06-08T16:06:55.608Z,37.00
2019-06-08T16:09:25.967Z,35.40
2019-06-08T16:11:55.677Z,35.30
2019-06-08T16:14:26.595Z,35.50
2019-06-08T16:16:56.404Z,35.60
2019-06-08T16:19:27.355Z,35.90
2019-06-08T16:21:57.163Z,37.00
2019-06-08T16:24:27.756Z,36.90
2019-06-08T16:26:57.591Z,37.00
2019-06-08T16:29:27.209Z,37.50
2019-06-08T16:31:56.754Z,37.20
2019-06-08T16:34:27.291Z,38.00
2019-06-08T16:36:57.653Z,38.30
2019-06-08T16:39:28.567Z,39.00
2019-06-08T16:41:58.433Z,37.40
2019-06-08T16:44:28.132Z,38.80
2019-06-08T16:46:57.996Z,38.00
2019-06-08T16:49:27.546Z,38.90
2019-06-08T16:51:57.143Z,38.60
2019-06-08T16:54:26.684Z,39.00
2019-06-08T16:57:09.376Z,39.00
2019-06-08T16:59:28.477Z,39.70
2019-06-08T17:01:58.020Z,40.20
2019-06-08T17:04:28.837Z,39.60
2019-06-08T17:06:58.404Z,40.00
2019-06-08T17:09:29.676Z,40.90
2019-06-08T17:11:59.262Z,41.10
2019-06-08T17:14:29.965Z,40.70
2019-06-08T17:16:59.633Z,40.70
2019-06-08T17:19:29.986Z,40.40
2019-06-08T17:21:59.920Z,40.70
2019-06-08T17:24:30.353Z,40.70
2019-06-08T17:27:00.098Z,41.50
2019-06-08T17:29:30.674Z,41.80
2019-06-08T17:32:00.677Z,42.20
2019-06-08T17:34:31.626Z,42.00
2019-06-08T17:37:01.402Z,42.00
2019-06-08T17:39:31.738Z,42.50
2019-06-08T17:42:01.399Z,42.70
2019-06-08T17:44:32.134Z,42.80
2019-06-08T17:47:02.087Z,42.90
2019-06-08T17:49:32.507Z,43.10
2019-06-08T17:52:02.196Z,43.80
2019-06-08T17:54:32.646Z,44.10
2019-06-08T17:57:02.245Z,44.10
2019-06-08T17:59:31.772Z,44.40
2019-06-08T18:02:01.331Z,44.40
2019-06-08T18:04:31.010Z,44.00
2019-06-08T18:07:04.099Z,44.80
2019-06-08T18:09:38.763Z,44.60
2019-06-08T18:12:08.860Z,44.20
2019-06-08T18:14:45.062Z,44.50
2019-06-08T18:17:18.292Z,44.30
2019-06-08T18:19:49.845Z,45.30
2019-06-08T18:22:19.951Z,45.30
2019-06-08T18:24:52.165Z,45.30
2019-06-08T18:27:22.711Z,46.30
2019-06-08T18:29:54.931Z,46.00
2019-06-08T18:32:30.221Z,46.10
2019-06-08T18:35:04.539Z,46.20
2019-06-08T18:37:34.859Z,46.50
2019-06-08T18:40:11.759Z,46.60
2019-06-08T18:42:48.875Z,46.90
2019-06-08T18:45:18.870Z,47.10
2019-06-08T18:47:48.681Z,47.50
2019-06-08T18:50:19.535Z,47.80
2019-06-08T18:52:49.820Z,48.60
2019-06-08T18:55:19.663Z,48.80
2019-06-08T18:57:49.347Z,49.40
2019-06-08T19:00:20.728Z,49.60
2019-06-08T19:02:54.631Z,49.70
2019-06-08T19:05:21.550Z,49.60
2019-06-08T19:07:52.522Z,49.70
2019-06-08T19:10:33.717Z,50.50
2019-06-08T19:13:03.319Z,50.90
2019-06-08T19:15:42.177Z,51.90
2019-06-08T19:18:08.763Z,51.20
2019-06-08T19:20:43.078Z,51.50
2019-06-08T19:23:09.874Z,51.60
2019-06-08T19:25:43.192Z,52.30
2019-06-08T19:28:11.674Z,51.70
2019-06-08T19:30:43.608Z,52.10
2019-06-08T19:33:12.447Z,52.50
2019-06-08T19:35:48.331Z,53.00
2019-06-08T19:38:18.115Z,53.50
2019-06-08T19:40:48.226Z,53.50
2019-06-08T19:43:18.659Z,53.80
2019-06-08T19:45:50.455Z,54.10
2019-06-08T19:48:20.562Z,55.30
2019-06-08T19:50:53.952Z,55.10
2019-06-08T19:53:21.258Z,55.20
2019-06-08T19:55:54.017Z,55.40
2019-06-08T19:58:21.967Z,56.00
2019-06-08T20:00:54.559Z,56.50
2019-06-08T20:03:22.917Z,56.80
2019-06-08T20:05:53.575Z,58.50
2019-06-08T20:08:23.464Z,61.20
2019-06-08T20:10:53.703Z,62.30
2019-06-08T20:13:23.500Z,63.20
2019-06-08T20:15:58.365Z,63.80
2019-06-08T20:18:24.192Z,64.00
2019-06-08T20:20:54.545Z,63.80
2019-06-08T20:23:24.215Z,64.10
2019-06-08T20:25:53.790Z,64.80
2019-06-08T20:28:23.402Z,64.90
2019-06-08T20:30:53.006Z,65.70
2019-06-08T20:33:22.543Z,65.50
2019-06-08T20:35:53.888Z,65.10
2019-06-08T20:38:35.276Z,65.70
2019-06-08T20:40:57.847Z,65.10
2019-06-08T20:43:27.107Z,64.90
2019-06-08T20:45:57.515Z,65.70
2019-06-08T20:48:27.635Z,67.00
2019-06-08T20:50:57.326Z,67.90
2019-06-08T20:53:28.268Z,68.40
2019-06-08T20:55:58.295Z,68.30
2019-06-08T20:58:28.314Z,67.50
2019-06-08T21:00:58.034Z,67.80
2019-06-08T21:03:28.095Z,67.10
2019-06-08T21:05:58.201Z,66.30
2019-06-08T21:08:28.277Z,66.60
2019-06-08T21:10:58.646Z,66.20
2019-06-08T21:13:28.421Z,66.20
2019-06-08T21:16:00.718Z,65.70
2019-06-08T21:18:30.299Z,65.10
2019-06-08T21:20:59.811Z,65.40
2019-06-08T21:23:32.179Z,65.60
2019-06-08T21:26:01.778Z,65.90
2019-06-08T21:28:31.487Z,66.60
2019-06-08T21:31:02.285Z,67.40
2019-06-08T21:33:32.220Z,68.00
2019-06-08T21:36:04.994Z,68.50
2019-06-08T21:38:32.899Z,69.30
2019-06-08T21:41:03.048Z,70.60
2019-06-08T21:43:32.770Z,71.00
2019-06-08T21:46:02.310Z,70.60
2019-06-08T21:48:31.967Z,69.80
2019-06-08T21:51:01.819Z,69.10
2019-06-08T21:53:31.497Z,68.60
2019-06-08T21:56:01.054Z,68.00
2019-06-08T21:58:30.574Z,68.30
2019-06-08T22:01:01.096Z,68.40
2019-06-08T22:03:31.215Z,68.70
2019-06-08T22:06:00.751Z,68.30
2019-06-08T22:08:30.295Z,68.00
2019-06-08T22:11:00.683Z,68.00
2019-06-08T22:13:30.369Z,67.70
2019-06-08T22:16:02.107Z,67.80
2019-06-08T22:18:38.019Z,69.10
2019-06-08T22:21:10.911Z,69.20
2019-06-08T22:23:41.208Z,70.40
2019-06-08T22:26:10.951Z,71.00
2019-06-08T22:28:40.497Z,72.10
2019-06-08T22:31:10.046Z,73.00
2019-06-08T22:33:39.672Z,73.60
2019-06-08T22:36:09.322Z,74.10
2019-06-08T22:38:38.940Z,74.30
2019-06-08T22:41:08.492Z,74.70
2019-06-08T22:43:38.047Z,75.10
2019-06-08T22:46:08.282Z,75.40
2019-06-08T22:48:38.484Z,75.50
2019-06-08T22:51:08.209Z,75.90
2019-06-08T22:53:38.413Z,76.30
2019-06-08T22:56:08.215Z,76.30
2019-06-08T22:58:38.050Z,76.40
2019-06-08T23:01:11.256Z,76.50
2019-06-08T23:03:38.779Z,76.20
2019-06-08T23:06:08.973Z,76.30
2019-06-08T23:08:38.588Z,76.90
2019-06-08T23:11:08.581Z,77.00
2019-06-08T23:13:38.351Z,77.70
2019-06-08T23:16:08.920Z,78.00
2019-06-08T23:18:38.748Z,78.10
2019-06-08T23:21:08.871Z,78.10
2019-06-08T23:23:38.710Z,78.30
2019-06-08T23:26:10.477Z,78.50
2019-06-08T23:28:39.502Z,78.90
2019-06-08T23:31:21.482Z,79.30
2019-06-08T23:33:41.357Z,79.50
2019-06-08T23:38:42.070Z,79.80
2019-06-08T23:41:11.642Z,80.20
2019-06-08T23:43:41.195Z,80.30
2019-06-08T23:46:10.751Z,80.00
2019-06-08T23:48:40.379Z,80.50
2019-06-08T23:51:11.065Z,81.10
2019-06-08T23:53:40.775Z,81.30
2019-06-08T23:56:11.948Z,81.30
2019-06-08T23:58:41.679Z,81.70
